Time;durP1;ratioP1;P1;durP2;ratioP2;P2;SDS_P1;SDS_P2;PMS_P1;PMS_P2;Temp;Humidity;BMP_temperature;BMP_pressure;BME280_temperature;BME280_humidity;BME280_pressure;Samples;Min_cycle;Max_cycle;Signal;HPM_P1;HPM_P2
2022/01/11 00:00:45;;;;;;;36.05;17.08;;;;;;;;;;4860438;29;20062;-70
2022/01/11 00:03:12;;;;;;;36.88;16.13;;;;;;;;;;4860621;29;20062;-71
2022/01/11 00:05:54;;;;;;;30.15;16.67;;;;;;;;;;4870302;29;20208;-72
2022/01/11 00:08:30;;;;;;;35.83;16.08;;;;;;;;;;4874304;29;20058;-70
2022/01/11 00:11:03;;;;;;;36.53;16.55;;;;;;;;;;4868402;29;20065;-72
2022/01/11 00:13:30;;;;;;;52.33;17.80;;;;;;;;;;4878784;29;20058;-71
2022/01/11 00:15:57;;;;;;;38.35;17.63;;;;;;;;;;4873140;29;20065;-71
2022/01/11 00:18:23;;;;;;;35.67;17.80;;;;;;;;;;4864431;29;20135;-71
2022/01/11 00:20:49;;;;;;;32.60;16.13;;;;;;;;;;4862672;29;20058;-70
2022/01/11 00:25:44;;;;;;;31.40;17.33;;;;;;;;;;4859888;29;20507;-71
2022/01/11 00:28:11;;;;;;;32.08;16.95;;;;;;;;;;4870316;29;20084;-72
2022/01/11 00:30:40;;;;;;;37.65;18.50;;;;;;;;;;4859922;29;20064;-70
2022/01/11 00:33:10;;;;;;;35.78;18.50;;;;;;;;;;4862085;29;20065;-71
2022/01/11 00:35:43;;;;;;;35.45;17.83;;;;;;;;;;4877317;29;20123;-69
2022/01/11 00:38:16;;;;;;;34.65;17.30;;;;;;;;;;4875327;29;20057;-69
2022/01/11 00:40:46;;;;;;;36.30;18.33;;;;;;;;;;4877403;29;20061;-72
2022/01/11 00:43:13;;;;;;;29.95;17.90;;;;;;;;;;4859224;29;20079;-71
2022/01/11 00:45:40;;;;;;;40.33;19.55;;;;;;;;;;4860007;29;20103;-70
2022/01/11 00:48:06;;;;;;;30.50;16.55;;;;;;;;;;4859757;29;20062;-70
2022/01/11 00:50:33;;;;;;;32.35;16.73;;;;;;;;;;4863731;29;20065;-70
2022/01/11 00:53:00;;;;;;;34.60;16.90;;;;;;;;;;4859497;29;20061;-70
2022/01/11 00:55:26;;;;;;;34.78;16.67;;;;;;;;;;4863932;29;20065;-70
2022/01/11 00:57:52;;;;;;;32.95;17.88;;;;;;;;;;4877671;29;20060;-70
2022/01/11 01:00:18;;;;;;;35.55;18.63;;;;;;;;;;4865617;29;20064;-70
2022/01/11 01:02:45;;;;;;;33.33;17.20;;;;;;;;;;4862781;29;20064;-70
2022/01/11 01:05:11;;;;;;;37.55;18.05;;;;;;;;;;4864722;29;20065;-70
2022/01/11 01:07:38;;;;;;;33.15;17.25;;;;;;;;;;4879355;29;20049;-70
2022/01/11 01:10:06;;;;;;;44.22;19.35;;;;;;;;;;4862330;29;20064;-71
2022/01/11 01:12:33;;;;;;;33.38;18.13;;;;;;;;;;4862514;29;20046;-70
2022/01/11 01:15:00;;;;;;;37.45;17.92;;;;;;;;;;4876920;29;20057;-71
2022/01/11 01:17:26;;;;;;;42.38;18.15;;;;;;;;;;4881118;29;20053;-72
2022/01/11 01:19:53;;;;;;;34.75;18.75;;;;;;;;;;4880080;29;20528;-70
2022/01/11 01:22:19;;;;;;;38.20;17.90;;;;;;;;;;4879569;29;20069;-71
2022/01/11 01:24:47;;;;;;;33.38;17.85;;;;;;;;;;4856116;29;20055;-71
2022/01/11 01:27:14;;;;;;;35.90;17.65;;;;;;;;;;4880016;29;20494;-70
2022/01/11 01:29:41;;;;;;;35.65;18.02;;;;;;;;;;4875061;29;20062;-71
2022/01/11 01:32:10;;;;;;;35.40;18.30;;;;;;;;;;4869850;29;20060;-71
2022/01/11 01:34:36;;;;;;;39.22;18.58;;;;;;;;;;4873781;29;20060;-71
2022/01/11 01:37:03;;;;;;;34.42;17.40;;;;;;;;;;4881128;29;20067;-72
2022/01/11 01:39:29;;;;;;;34.90;18.40;;;;;;;;;;4868526;29;20065;-71
2022/01/11 01:41:56;;;;;;;33.20;17.38;;;;;;;;;;4868083;29;20057;-70
2022/01/11 01:44:22;;;;;;;33.92;17.67;;;;;;;;;;4871211;29;20053;-70
2022/01/11 01:46:48;;;;;;;38.13;18.77;;;;;;;;;;4864052;29;20058;-70
2022/01/11 01:49:18;;;;;;;35.35;18.45;;;;;;;;;;4880238;29;20058;-70
2022/01/11 01:51:45;;;;;;;39.08;19.38;;;;;;;;;;4870462;29;20093;-70
2022/01/11 01:54:13;;;;;;;41.35;19.23;;;;;;;;;;4875176;29;20064;-70
2022/01/11 01:56:39;;;;;;;35.63;18.08;;;;;;;;;;4880197;29;20062;-70
2022/01/11 01:59:06;;;;;;;33.75;18.60;;;;;;;;;;4880070;29;20054;-70
2022/01/11 02:01:37;;;;;;;34.70;18.85;;;;;;;;;;4877759;29;20140;-70
2022/01/11 02:04:04;;;;;;;35.72;18.48;;;;;;;;;;4875030;29;20058;-70
2022/01/11 02:06:30;;;;;;;34.60;17.05;;;;;;;;;;4880199;29;20088;-70
2022/01/11 02:08:56;;;;;;;40.17;17.67;;;;;;;;;;4878616;29;20073;-70
2022/01/11 02:11:23;;;;;;;42.03;19.48;;;;;;;;;;4877340;29;20060;-70
2022/01/11 02:13:50;;;;;;;43.45;19.65;;;;;;;;;;4880158;29;20061;-70
2022/01/11 02:16:19;;;;;;;41.72;19.83;;;;;;;;;;4871560;29;20068;-70
2022/01/11 02:18:46;;;;;;;38.15;18.08;;;;;;;;;;4873959;29;20058;-70
2022/01/11 02:21:13;;;;;;;35.42;17.67;;;;;;;;;;4865323;29;20120;-69
2022/01/11 02:23:39;;;;;;;37.55;20.55;;;;;;;;;;4861413;29;20058;-70
2022/01/11 02:26:06;;;;;;;37.03;19.73;;;;;;;;;;4863417;29;20060;-70
2022/01/11 02:28:33;;;;;;;37.75;19.08;;;;;;;;;;4869622;29;20149;-69
2022/01/11 02:31:01;;;;;;;33.17;18.08;;;;;;;;;;4873277;29;20148;-70
2022/01/11 02:33:34;;;;;;;34.97;18.15;;;;;;;;;;4876481;29;20068;-70
2022/01/11 02:36:05;;;;;;;34.70;18.13;;;;;;;;;;4878337;29;20057;-70
2022/01/11 02:38:32;;;;;;;35.42;18.63;;;;;;;;;;4861271;29;20058;-70
2022/01/11 02:40:58;;;;;;;30.83;16.17;;;;;;;;;;4861310;29;20062;-70
2022/01/11 02:43:25;;;;;;;32.70;15.63;;;;;;;;;;4863998;29;20065;-72
2022/01/11 02:45:52;;;;;;;31.48;17.10;;;;;;;;;;4864893;29;20145;-71
2022/01/11 02:48:21;;;;;;;32.00;16.15;;;;;;;;;;4860702;29;20062;-71
2022/01/11 02:50:47;;;;;;;31.80;16.83;;;;;;;;;;4869182;29;20064;-69
2022/01/11 02:53:14;;;;;;;28.95;17.30;;;;;;;;;;4879668;29;20068;-70
2022/01/11 02:55:43;;;;;;;35.10;16.98;;;;;;;;;;4874860;29;20470;-70
2022/01/11 02:58:10;;;;;;;33.72;17.65;;;;;;;;;;4872817;29;20054;-70
2022/01/11 03:00:38;;;;;;;39.05;17.40;;;;;;;;;;4860961;29;20084;-72
2022/01/11 03:03:09;;;;;;;33.60;17.95;;;;;;;;;;4862840;29;20067;-71
2022/01/11 03:05:36;;;;;;;33.78;16.55;;;;;;;;;;4878683;29;20070;-72
2022/01/11 03:08:02;;;;;;;32.30;16.58;;;;;;;;;;4867187;29;20066;-71
2022/01/11 03:12:55;;;;;;;30.67;16.73;;;;;;;;;;4862253;29;20089;-72
2022/01/11 03:15:21;;;;;;;32.00;16.13;;;;;;;;;;4861077;29;20061;-71
2022/01/11 03:17:48;;;;;;;30.45;15.90;;;;;;;;;;4860849;29;20058;-69
2022/01/11 03:20:14;;;;;;;32.65;16.58;;;;;;;;;;4860800;29;20064;-70
2022/01/11 03:22:40;;;;;;;33.28;16.33;;;;;;;;;;4861826;29;20148;-70
2022/01/11 03:25:07;;;;;;;32.50;16.70;;;;;;;;;;4872726;29;20049;-70
2022/01/11 03:27:34;;;;;;;30.52;15.73;;;;;;;;;;4877637;29;20061;-71
2022/01/11 03:30:00;;;;;;;30.15;16.75;;;;;;;;;;4874876;29;20059;-72
2022/01/11 03:32:26;;;;;;;36.13;17.38;;;;;;;;;;4874407;29;20064;-70
2022/01/11 03:35:03;;;;;;;34.63;17.73;;;;;;;;;;4873010;29;20057;-70
2022/01/11 03:37:29;;;;;;;29.83;15.90;;;;;;;;;;4860432;29;20137;-70
2022/01/11 03:39:56;;;;;;;36.75;17.13;;;;;;;;;;4868111;29;20068;-70
2022/01/11 03:42:22;;;;;;;36.67;18.40;;;;;;;;;;4850797;29;20064;-70
2022/01/11 03:44:50;;;;;;;35.60;17.40;;;;;;;;;;4863717;29;20062;-72
2022/01/11 03:47:17;;;;;;;36.22;16.88;;;;;;;;;;4879601;29;20512;-71
2022/01/11 03:49:43;;;;;;;35.17;16.70;;;;;;;;;;4872094;29;20081;-72
2022/01/11 03:52:10;;;;;;;32.25;16.83;;;;;;;;;;4860619;29;20414;-72
2022/01/11 03:57:21;;;;;;;36.60;16.80;;;;;;;;;;4878957;29;20057;-70
2022/01/11 03:59:47;;;;;;;31.88;17.83;;;;;;;;;;4871393;29;20054;-71
2022/01/11 04:02:14;;;;;;;36.72;17.88;;;;;;;;;;4872932;29;20065;-72
2022/01/11 04:04:40;;;;;;;34.90;17.98;;;;;;;;;;4861754;29;20465;-72
2022/01/11 04:07:07;;;;;;;34.80;16.63;;;;;;;;;;4878816;29;20061;-70
2022/01/11 04:09:33;;;;;;;38.05;18.27;;;;;;;;;;4873096;29;20065;-70
2022/01/11 04:12:00;;;;;;;36.22;17.08;;;;;;;;;;4860533;29;20069;-71
2022/01/11 04:14:26;;;;;;;35.95;17.38;;;;;;;;;;4858684;29;20065;-71
2022/01/11 04:16:53;;;;;;;38.03;18.20;;;;;;;;;;4860025;29;20061;-71
2022/01/11 04:19:20;;;;;;;36.00;18.05;;;;;;;;;;4872762;29;20100;-71
2022/01/11 04:21:47;;;;;;;36.30;19.00;;;;;;;;;;4861963;29;20064;-70
2022/01/11 04:24:13;;;;;;;39.83;18.23;;;;;;;;;;4864408;29;20502;-72
2022/01/11 04:26:44;;;;;;;37.05;16.98;;;;;;;;;;4867193;29;20113;-70
2022/01/11 04:29:10;;;;;;;40.75;17.90;;;;;;;;;;4876821;29;20058;-72
2022/01/11 04:31:37;;;;;;;43.78;19.08;;;;;;;;;;4876479;29;20050;-70
2022/01/11 04:34:03;;;;;;;36.88;17.98;;;;;;;;;;4859964;29;20064;-70
2022/01/11 04:36:30;;;;;;;39.85;19.02;;;;;;;;;;4863018;29;20054;-71
2022/01/11 04:38:56;;;;;;;42.28;19.00;;;;;;;;;;4867788;29;20534;-71
2022/01/11 04:41:22;;;;;;;43.03;19.45;;;;;;;;;;4868394;29;20062;-71
2022/01/11 04:43:49;;;;;;;42.38;18.13;;;;;;;;;;4877787;29;20536;-70
2022/01/11 04:46:18;;;;;;;40.40;20.23;;;;;;;;;;4863186;29;20064;-70
2022/01/11 04:48:45;;;;;;;37.85;17.73;;;;;;;;;;4862984;29;20062;-71
2022/01/11 04:51:12;;;;;;;41.25;19.60;;;;;;;;;;4864733;29;20054;-72
2022/01/11 04:53:38;;;;;;;38.10;18.67;;;;;;;;;;4875381;29;20528;-69
2022/01/11 04:56:04;;;;;;;43.83;20.20;;;;;;;;;;4863710;29;20058;-71
2022/01/11 04:58:31;;;;;;;47.20;19.83;;;;;;;;;;4874529;29;20461;-71
2022/01/11 05:00:57;;;;;;;37.47;19.10;;;;;;;;;;4864147;29;20066;-70
2022/01/11 05:03:24;;;;;;;45.75;19.60;;;;;;;;;;4864850;29;20110;-72
2022/01/11 05:05:50;;;;;;;43.53;18.88;;;;;;;;;;4868939;29;20061;-71
2022/01/11 05:08:17;;;;;;;38.72;18.63;;;;;;;;;;4879738;29;20067;-71
2022/01/11 05:10:43;;;;;;;41.10;19.90;;;;;;;;;;4869038;29;20145;-70
2022/01/11 05:13:11;;;;;;;37.30;19.15;;;;;;;;;;4870930;29;20058;-69
2022/01/11 05:15:38;;;;;;;46.90;21.23;;;;;;;;;;4868154;29;20453;-69
2022/01/11 05:18:04;;;;;;;42.78;20.75;;;;;;;;;;4871813;29;20095;-71
2022/01/11 05:20:31;;;;;;;47.50;19.75;;;;;;;;;;4865076;29;20062;-71
2022/01/11 05:22:57;;;;;;;40.13;19.70;;;;;;;;;;4862399;29;20049;-70
2022/01/11 05:25:23;;;;;;;44.17;18.88;;;;;;;;;;4873072;29;20053;-69
2022/01/11 05:27:50;;;;;;;43.17;20.38;;;;;;;;;;4881402;29;20057;-70
2022/01/11 05:30:17;;;;;;;45.22;19.73;;;;;;;;;;4869928;29;20054;-71
2022/01/11 05:32:43;;;;;;;39.70;17.70;;;;;;;;;;4866073;29;20502;-70
2022/01/11 05:35:11;;;;;;;42.05;19.10;;;;;;;;;;4862510;29;20068;-71
2022/01/11 05:37:37;;;;;;;46.08;20.40;;;;;;;;;;4862426;29;20140;-69
2022/01/11 05:40:11;;;;;;;40.28;19.58;;;;;;;;;;4874532;29;20068;-71
2022/01/11 05:42:38;;;;;;;42.55;19.33;;;;;;;;;;4880607;29;20144;-70
2022/01/11 05:45:05;;;;;;;44.28;19.67;;;;;;;;;;4880473;29;20058;-70
2022/01/11 05:47:31;;;;;;;40.17;18.48;;;;;;;;;;4873545;29;20058;-71
2022/01/11 05:50:00;;;;;;;40.80;19.75;;;;;;;;;;4871476;29;20396;-71
2022/01/11 05:52:26;;;;;;;42.15;19.92;;;;;;;;;;4860983;29;20168;-71
2022/01/11 05:54:52;;;;;;;46.92;20.10;;;;;;;;;;4872230;29;20192;-71
2022/01/11 05:57:19;;;;;;;44.35;20.10;;;;;;;;;;4867897;29;20531;-71
2022/01/11 05:59:45;;;;;;;43.65;19.70;;;;;;;;;;4861755;29;20058;-72
2022/01/11 06:02:12;;;;;;;45.80;20.23;;;;;;;;;;4865302;29;20060;-72
2022/01/11 06:04:38;;;;;;;44.17;20.38;;;;;;;;;;4865865;29;20219;-71
2022/01/11 06:07:04;;;;;;;41.92;20.67;;;;;;;;;;4871121;29;20068;-71
2022/01/11 06:09:31;;;;;;;46.90;20.23;;;;;;;;;;4866561;29;20065;-71
2022/01/11 06:11:57;;;;;;;41.42;18.40;;;;;;;;;;4874362;29;20061;-71
2022/01/11 06:14:23;;;;;;;50.95;22.27;;;;;;;;;;4872428;29;20058;-71
2022/01/11 06:16:50;;;;;;;48.60;21.70;;;;;;;;;;4861652;29;20045;-71
2022/01/11 06:19:16;;;;;;;49.05;20.48;;;;;;;;;;4878052;29;20503;-71
2022/01/11 06:21:43;;;;;;;44.83;20.90;;;;;;;;;;4864880;29;20064;-71
2022/01/11 06:24:09;;;;;;;44.80;20.83;;;;;;;;;;4864196;29;20494;-71
2022/01/11 06:26:36;;;;;;;44.00;21.00;;;;;;;;;;4864640;29;20057;-70
2022/01/11 06:29:02;;;;;;;45.08;22.17;;;;;;;;;;4864444;29;20096;-71
2022/01/11 06:31:30;;;;;;;47.25;21.85;;;;;;;;;;4860900;29;20061;-70
2022/01/11 06:33:56;;;;;;;46.55;19.98;;;;;;;;;;4868458;29;20058;-70
2022/01/11 06:36:22;;;;;;;49.47;20.75;;;;;;;;;;4868029;29;20141;-74
2022/01/11 06:38:49;;;;;;;49.55;21.20;;;;;;;;;;4865408;29;20057;-71
2022/01/11 06:41:15;;;;;;;45.88;21.63;;;;;;;;;;4868662;29;20062;-70
2022/01/11 06:43:42;;;;;;;47.20;20.98;;;;;;;;;;4861912;29;20061;-72
2022/01/11 06:46:08;;;;;;;42.67;20.23;;;;;;;;;;4871328;29;20050;-70
2022/01/11 06:48:35;;;;;;;43.88;19.95;;;;;;;;;;4873944;29;20057;-71
2022/01/11 06:51:01;;;;;;;48.95;22.35;;;;;;;;;;4877710;29;20062;-72
2022/01/11 06:53:29;;;;;;;42.28;20.65;;;;;;;;;;4868919;29;20351;-71
2022/01/11 06:55:56;;;;;;;41.17;19.83;;;;;;;;;;4875119;29;20524;-71
2022/01/11 06:58:22;;;;;;;46.60;20.00;;;;;;;;;;4871015;29;20217;-72
2022/01/11 07:00:49;;;;;;;42.22;20.85;;;;;;;;;;4866258;29;20127;-70
2022/01/11 07:03:15;;;;;;;44.75;20.30;;;;;;;;;;4872994;29;20061;-71
2022/01/11 07:05:43;;;;;;;41.22;20.98;;;;;;;;;;4874210;29;20061;-71
2022/01/11 07:08:09;;;;;;;42.28;19.33;;;;;;;;;;4873812;29;20474;-71
2022/01/11 07:10:35;;;;;;;44.38;20.52;;;;;;;;;;4867792;29;20058;-71
2022/01/11 07:13:02;;;;;;;43.70;20.77;;;;;;;;;;4874778;29;20061;-70
2022/01/11 07:15:29;;;;;;;41.00;21.10;;;;;;;;;;4865114;29;20050;-71
2022/01/11 07:17:56;;;;;;;40.65;20.25;;;;;;;;;;4871946;29;20064;-72
2022/01/11 07:20:22;;;;;;;43.83;19.90;;;;;;;;;;4874610;29;20540;-72
2022/01/11 07:22:49;;;;;;;34.78;19.55;;;;;;;;;;4860569;29;20065;-72
2022/01/11 07:25:15;;;;;;;44.53;21.60;;;;;;;;;;4877282;29;20063;-70
2022/01/11 07:27:42;;;;;;;41.67;19.35;;;;;;;;;;4863203;29;20144;-71
2022/01/11 07:30:08;;;;;;;41.92;20.48;;;;;;;;;;4862370;29;20069;-71
2022/01/11 07:32:35;;;;;;;44.83;19.90;;;;;;;;;;4869022;29;20061;-70
2022/01/11 07:35:04;;;;;;;45.45;22.05;;;;;;;;;;4865834;29;20053;-71
2022/01/11 07:37:30;;;;;;;47.83;21.10;;;;;;;;;;4873891;29;20053;-71
2022/01/11 07:39:57;;;;;;;45.10;19.77;;;;;;;;;;4862070;29;20053;-70
2022/01/11 07:42:23;;;;;;;42.20;21.63;;;;;;;;;;4873639;29;20088;-72
2022/01/11 07:44:51;;;;;;;42.17;20.30;;;;;;;;;;4869255;29;20186;-70
2022/01/11 07:47:18;;;;;;;40.97;21.25;;;;;;;;;;4873259;29;20548;-71
2022/01/11 07:49:47;;;;;;;42.28;21.48;;;;;;;;;;4865178;29;20057;-70
2022/01/11 07:52:13;;;;;;;41.53;20.38;;;;;;;;;;4870090;29;20049;-70
2022/01/11 07:54:40;;;;;;;41.97;22.10;;;;;;;;;;4876234;29;20058;-71
2022/01/11 07:57:07;;;;;;;40.83;19.83;;;;;;;;;;4876592;29;20062;-71
2022/01/11 07:59:33;;;;;;;45.85;20.63;;;;;;;;;;4870019;29;20064;-71
2022/01/11 08:02:19;;;;;;;40.45;20.23;;;;;;;;;;4860443;29;20063;-71
2022/01/11 08:04:46;;;;;;;37.75;19.02;;;;;;;;;;4869908;29;20092;-71
2022/01/11 08:07:12;;;;;;;40.80;19.92;;;;;;;;;;4873384;29;20061;-70
2022/01/11 08:09:38;;;;;;;38.60;19.77;;;;;;;;;;4858813;29;20072;-71
2022/01/11 08:12:05;;;;;;;37.38;18.70;;;;;;;;;;4871159;29;20157;-70
2022/01/11 08:14:31;;;;;;;36.58;18.90;;;;;;;;;;4865139;29;20060;-73
2022/01/11 08:16:57;;;;;;;40.00;19.38;;;;;;;;;;4861743;29;20578;-72
2022/01/11 08:19:25;;;;;;;41.40;19.35;;;;;;;;;;4867673;29;20061;-70
2022/01/11 08:21:52;;;;;;;36.40;19.77;;;;;;;;;;4874456;29;20088;-72
2022/01/11 08:24:19;;;;;;;39.08;19.67;;;;;;;;;;4878418;29;20061;-72
2022/01/11 08:26:45;;;;;;;38.92;20.05;;;;;;;;;;4867052;29;20058;-69
2022/01/11 08:29:11;;;;;;;38.60;18.90;;;;;;;;;;4877653;29;20529;-71
2022/01/11 08:31:37;;;;;;;31.88;16.90;;;;;;;;;;4880003;29;20057;-70
2022/01/11 08:34:05;;;;;;;43.40;18.83;;;;;;;;;;4874663;29;20060;-72
2022/01/11 08:36:31;;;;;;;35.95;17.60;;;;;;;;;;4873158;29;20062;-72
2022/01/11 08:38:57;;;;;;;36.35;19.45;;;;;;;;;;4864340;29;20061;-71
2022/01/11 08:41:23;;;;;;;35.47;17.30;;;;;;;;;;4864167;29;20056;-72
2022/01/11 08:43:50;;;;;;;38.08;17.55;;;;;;;;;;4864535;29;20064;-71
2022/01/11 08:46:16;;;;;;;33.15;17.27;;;;;;;;;;4863758;29;20089;-72
2022/01/11 08:48:43;;;;;;;34.03;17.60;;;;;;;;;;4881086;29;20060;-72
2022/01/11 08:51:09;;;;;;;37.17;19.10;;;;;;;;;;4880106;29;20407;-73
2022/01/11 08:53:35;;;;;;;38.25;18.92;;;;;;;;;;4870460;29;20061;-71
2022/01/11 08:56:05;;;;;;;41.88;17.35;;;;;;;;;;4860320;29;20097;-72
2022/01/11 08:58:31;;;;;;;36.25;17.83;;;;;;;;;;4861222;29;20141;-71
2022/01/11 09:00:57;;;;;;;35.28;17.17;;;;;;;;;;4861366;29;20054;-71
2022/01/11 09:03:24;;;;;;;34.58;18.13;;;;;;;;;;4861972;29;20054;-70
2022/01/11 09:05:51;;;;;;;31.92;16.95;;;;;;;;;;4863786;29;20439;-72
2022/01/11 09:08:17;;;;;;;31.73;18.63;;;;;;;;;;4864369;29;20501;-71
2022/01/11 09:10:44;;;;;;;35.70;18.27;;;;;;;;;;4863038;29;20415;-72
2022/01/11 09:13:11;;;;;;;40.03;18.50;;;;;;;;;;4868488;29;20065;-72
2022/01/11 09:15:37;;;;;;;33.22;17.55;;;;;;;;;;4869164;29;20053;-71
2022/01/11 09:18:04;;;;;;;32.67;16.63;;;;;;;;;;4875557;29;20058;-71
2022/01/11 09:20:30;;;;;;;34.28;16.65;;;;;;;;;;4867192;29;20065;-71
2022/01/11 09:22:56;;;;;;;31.92;17.27;;;;;;;;;;4876821;29;20080;-71
2022/01/11 09:25:23;;;;;;;33.20;18.27;;;;;;;;;;4876960;29;20549;-69
2022/01/11 09:27:49;;;;;;;33.42;18.10;;;;;;;;;;4873053;29;20315;-72
2022/01/11 09:30:16;;;;;;;34.35;17.95;;;;;;;;;;4878270;29;20525;-71
2022/01/11 09:32:42;;;;;;;30.20;16.67;;;;;;;;;;4872656;29;20069;-72
2022/01/11 09:35:10;;;;;;;32.33;16.52;;;;;;;;;;4875926;29;20153;-71
2022/01/11 09:37:36;;;;;;;34.05;18.15;;;;;;;;;;4862891;29;20155;-71
2022/01/11 09:40:04;;;;;;;34.33;17.85;;;;;;;;;;4868655;29;20511;-70
2022/01/11 09:42:30;;;;;;;36.22;17.95;;;;;;;;;;4861821;29;20058;-71
2022/01/11 09:44:58;;;;;;;35.72;17.75;;;;;;;;;;4878160;29;20068;-71
2022/01/11 09:47:25;;;;;;;37.05;17.83;;;;;;;;;;4867115;29;20077;-72
2022/01/11 09:49:51;;;;;;;31.65;17.40;;;;;;;;;;4864386;29;20755;-70
2022/01/11 09:52:17;;;;;;;32.67;16.70;;;;;;;;;;4875982;29;20057;-71
2022/01/11 09:54:47;;;;;;;33.40;16.27;;;;;;;;;;4878913;29;20075;-71
2022/01/11 09:57:14;;;;;;;37.28;16.52;;;;;;;;;;4860710;29;20061;-71
2022/01/11 09:59:41;;;;;;;34.55;17.45;;;;;;;;;;4862990;29;20064;-70
2022/01/11 10:02:07;;;;;;;30.08;16.38;;;;;;;;;;4856787;29;20084;-72
2022/01/11 10:04:35;;;;;;;31.75;17.00;;;;;;;;;;4878655;29;20068;-70
2022/01/11 10:07:02;;;;;;;27.83;15.52;;;;;;;;;;4873601;29;20415;-71
2022/01/11 10:09:40;;;;;;;37.45;18.65;;;;;;;;;;4862512;29;20064;-69
2022/01/11 10:12:08;;;;;;;31.98;15.95;;;;;;;;;;4880475;29;20058;-71
2022/01/11 10:14:37;;;;;;;31.95;16.67;;;;;;;;;;4871679;29;20054;-72
2022/01/11 10:17:04;;;;;;;29.38;15.32;;;;;;;;;;4865669;29;20061;-71
2022/01/11 10:19:32;;;;;;;27.77;15.98;;;;;;;;;;4862048;29;20117;-72
2022/01/11 10:22:01;;;;;;;30.85;16.17;;;;;;;;;;4861749;29;20058;-73
2022/01/11 10:24:39;;;;;;;28.45;16.50;;;;;;;;;;4872267;29;20057;-72
2022/01/11 10:27:07;;;;;;;31.83;16.13;;;;;;;;;;4867288;29;20058;-71
2022/01/11 10:29:40;;;;;;;30.40;15.75;;;;;;;;;;4867456;29;20057;-72
2022/01/11 10:32:27;;;;;;;30.88;16.08;;;;;;;;;;4866400;29;20068;-72
2022/01/11 10:34:55;;;;;;;32.25;16.08;;;;;;;;;;4865457;29;20144;-73
2022/01/11 10:37:29;;;;;;;32.13;15.48;;;;;;;;;;4866226;29;20062;-72
2022/01/11 10:40:00;;;;;;;32.53;15.52;;;;;;;;;;4863680;29;20070;-71
2022/01/11 10:42:28;;;;;;;27.95;15.38;;;;;;;;;;4875232;29;20061;-71
2022/01/11 10:45:03;;;;;;;29.00;14.68;;;;;;;;;;4873683;29;20053;-72
2022/01/11 10:47:33;;;;;;;26.63;14.70;;;;;;;;;;4864807;29;20164;-73
2022/01/11 10:50:07;;;;;;;27.42;14.27;;;;;;;;;;4865294;29;20062;-73
2022/01/11 10:52:34;;;;;;;29.48;15.15;;;;;;;;;;4868105;29;20057;-71
2022/01/11 10:55:03;;;;;;;31.70;14.35;;;;;;;;;;4868623;29;20145;-73
2022/01/11 10:57:32;;;;;;;24.00;14.00;;;;;;;;;;4875109;29;20063;-72
2022/01/11 11:00:07;;;;;;;27.23;15.32;;;;;;;;;;4865392;29;20528;-71
2022/01/11 11:02:33;;;;;;;26.00;14.77;;;;;;;;;;4872819;29;20080;-71
2022/01/11 11:05:19;;;;;;;29.63;14.30;;;;;;;;;;4860592;29;20057;-73
2022/01/11 11:07:58;;;;;;;28.47;15.07;;;;;;;;;;4877528;29;20502;-72
2022/01/11 11:10:27;;;;;;;27.00;14.90;;;;;;;;;;4876130;29;20277;-73
2022/01/11 11:12:54;;;;;;;25.00;13.52;;;;;;;;;;4866800;29;20514;-73
2022/01/11 11:15:26;;;;;;;26.40;14.45;;;;;;;;;;4865737;29;20084;-71
2022/01/11 11:18:19;;;;;;;24.45;13.80;;;;;;;;;;4862896;29;20064;-73
2022/01/11 11:20:45;;;;;;;27.90;14.52;;;;;;;;;;4871062;29;20578;-73
2022/01/11 11:23:12;;;;;;;27.05;14.63;;;;;;;;;;4860341;29;20144;-72
2022/01/11 11:25:40;;;;;;;29.67;13.93;;;;;;;;;;4878993;29;20104;-73
2022/01/11 11:28:06;;;;;;;25.40;14.98;;;;;;;;;;4879246;29;20160;-74
2022/01/11 11:30:33;;;;;;;23.63;14.00;;;;;;;;;;4864120;29;20073;-74
2022/01/11 11:33:00;;;;;;;24.00;14.52;;;;;;;;;;4861622;29;20532;-73
2022/01/11 11:35:27;;;;;;;23.23;14.27;;;;;;;;;;4863179;29;20081;-72
2022/01/11 11:38:01;;;;;;;26.20;14.90;;;;;;;;;;4863561;29;20067;-73
2022/01/11 11:40:28;;;;;;;26.27;14.18;;;;;;;;;;4866669;29;20081;-70
2022/01/11 11:42:57;;;;;;;23.65;13.77;;;;;;;;;;4866829;29;20054;-72
2022/01/11 11:45:25;;;;;;;24.77;13.63;;;;;;;;;;4864035;29;20062;-72
2022/01/11 11:48:01;;;;;;;24.58;13.77;;;;;;;;;;4864137;29;20136;-73
2022/01/11 11:50:27;;;;;;;;;;;;;;;;;;4863380;29;20528;-69
2022/01/11 11:52:54;;;;;;;;;;;;;;;;;;4871455;29;45644;-71
2022/01/11 11:55:28;;;;;;;21.65;11.98;;;;;;;;;;4864950;29;45815;-70
2022/01/11 11:58:00;;;;;;;22.50;13.07;;;;;;;;;;4863937;29;20143;-71
2022/01/11 12:00:29;;;;;;;21.42;12.43;;;;;;;;;;4866246;29;20068;-71
2022/01/11 12:02:56;;;;;;;27.27;13.55;;;;;;;;;;4858788;29;20128;-70
2022/01/11 12:05:38;;;;;;;26.40;13.63;;;;;;;;;;4863383;29;20123;-72
2022/01/11 12:08:23;;;;;;;24.33;13.15;;;;;;;;;;4877201;29;20153;-71
2022/01/11 12:10:52;;;;;;;25.92;13.30;;;;;;;;;;4877798;29;20508;-70
2022/01/11 12:13:37;;;;;;;24.13;12.77;;;;;;;;;;4872567;29;20140;-71
2022/01/11 12:16:24;;;;;;;18.75;11.45;;;;;;;;;;4877538;29;20081;-72
2022/01/11 12:18:51;;;;;;;24.23;13.60;;;;;;;;;;4864620;29;20049;-72
2022/01/11 12:21:18;;;;;;;21.38;12.43;;;;;;;;;;4858465;29;20057;-73
2022/01/11 12:23:44;;;;;;;22.42;12.93;;;;;;;;;;4874291;29;20541;-73
2022/01/11 12:26:14;;;;;;;26.70;13.73;;;;;;;;;;4875060;29;20061;-71
2022/01/11 12:28:40;;;;;;;29.65;14.98;;;;;;;;;;4876544;29;20104;-72
2022/01/11 12:31:22;;;;;;;28.30;13.15;;;;;;;;;;4878426;29;20505;-71
2022/01/11 12:33:49;;;;;;;21.48;13.15;;;;;;;;;;4876132;29;20060;-72
2022/01/11 12:36:15;;;;;;;23.02;12.75;;;;;;;;;;4875304;29;20058;-71
2022/01/11 12:38:58;;;;;;;22.92;11.75;;;;;;;;;;4857990;29;20114;-71
2022/01/11 12:41:33;;;;;;;26.73;12.75;;;;;;;;;;4865764;29;20053;-71
2022/01/11 12:44:23;;;;;;;20.85;12.20;;;;;;;;;;4878081;29;20142;-70
2022/01/11 12:46:54;;;;;;;21.85;12.35;;;;;;;;;;4875704;29;20519;-71
2022/01/11 12:49:21;;;;;;;22.50;13.20;;;;;;;;;;4876473;29;20064;-71
2022/01/11 12:51:53;;;;;;;20.70;11.93;;;;;;;;;;4866192;29;20054;-72
2022/01/11 12:54:21;;;;;;;20.02;11.60;;;;;;;;;;4866181;29;20057;-72
2022/01/11 12:56:53;;;;;;;16.38;10.00;;;;;;;;;;4864725;29;20510;-71
2022/01/11 12:59:19;;;;;;;21.80;11.13;;;;;;;;;;4862359;29;20057;-72
2022/01/11 13:01:46;;;;;;;17.88;10.70;;;;;;;;;;4879195;29;20065;-71
2022/01/11 13:04:13;;;;;;;19.42;10.98;;;;;;;;;;4879812;29;20049;-71
2022/01/11 13:06:39;;;;;;;17.05;10.30;;;;;;;;;;4879753;29;20066;-71
2022/01/11 13:09:10;;;;;;;20.15;11.13;;;;;;;;;;4877744;29;20063;-73
2022/01/11 13:11:37;;;;;;;16.65;10.27;;;;;;;;;;4878087;29;20061;-70
2022/01/11 13:14:18;;;;;;;18.35;10.93;;;;;;;;;;4878988;29;20068;-70
2022/01/11 13:16:46;;;;;;;16.08;9.95;;;;;;;;;;4878175;29;20516;-73
2022/01/11 13:19:14;;;;;;;25.23;10.48;;;;;;;;;;4873810;29;22190;-71
2022/01/11 13:21:43;;;;;;;18.20;10.90;;;;;;;;;;4866613;29;20062;-71
2022/01/11 13:26:50;;;;;;;19.17;9.95;;;;;;;;;;4877677;29;20064;-73
2022/01/11 13:29:18;;;;;;;17.20;10.52;;;;;;;;;;4862543;29;20144;-71
2022/01/11 13:31:51;;;;;;;14.90;9.10;;;;;;;;;;4868999;29;20057;-72
2022/01/11 13:34:21;;;;;;;20.48;10.63;;;;;;;;;;4877336;29;20122;-72
2022/01/11 13:36:51;;;;;;;16.00;9.98;;;;;;;;;;4878160;29;20058;-71
2022/01/11 13:39:21;;;;;;;16.20;9.65;;;;;;;;;;4862830;29;20061;-72
2022/01/11 13:41:48;;;;;;;16.52;9.43;;;;;;;;;;4879551;29;20108;-71
2022/01/11 13:44:16;;;;;;;21.13;9.65;;;;;;;;;;4875089;29;20054;-71
2022/01/11 13:46:44;;;;;;;19.35;9.35;;;;;;;;;;4878438;29;20053;-71
2022/01/11 13:49:15;;;;;;;14.93;8.98;;;;;;;;;;4879240;29;20066;-72
2022/01/11 13:51:43;;;;;;;14.07;8.02;;;;;;;;;;4874959;29;20061;-72
2022/01/11 13:54:10;;;;;;;17.45;8.73;;;;;;;;;;4866441;29;20059;-71
2022/01/11 13:56:42;;;;;;;11.93;8.38;;;;;;;;;;4868847;29;20165;-71
2022/01/11 13:59:10;;;;;;;12.63;8.43;;;;;;;;;;4874372;29;20050;-73
2022/01/11 14:01:37;;;;;;;14.38;7.68;;;;;;;;;;4880612;29;20536;-71
2022/01/11 14:04:11;;;;;;;18.05;8.68;;;;;;;;;;4877420;29;20494;-71
2022/01/11 14:06:45;;;;;;;12.27;7.68;;;;;;;;;;4877762;29;20061;-71
2022/01/11 14:09:17;;;;;;;14.68;8.00;;;;;;;;;;4863822;29;20058;-71
2022/01/11 14:12:04;;;;;;;13.13;7.68;;;;;;;;;;4859860;29;20069;-72
2022/01/11 14:14:31;;;;;;;12.93;7.65;;;;;;;;;;4859904;29;20064;-71
2022/01/11 14:17:11;;;;;;;12.77;6.95;;;;;;;;;;4867414;29;20066;-73
2022/01/11 14:19:44;;;;;;;11.32;7.05;;;;;;;;;;4875908;29;20057;-71
2022/01/11 14:22:12;;;;;;;14.52;7.82;;;;;;;;;;4861796;29;20057;-73
2022/01/11 14:24:57;;;;;;;15.55;7.55;;;;;;;;;;4877530;29;20053;-73
2022/01/11 14:27:23;;;;;;;16.77;8.10;;;;;;;;;;4860528;29;20065;-73
2022/01/11 14:29:55;;;;;;;13.40;8.07;;;;;;;;;;4859769;29;20497;-72
2022/01/11 14:32:22;;;;;;;15.25;7.90;;;;;;;;;;4859697;29;20513;-72
2022/01/11 14:34:56;;;;;;;12.90;6.85;;;;;;;;;;4877540;29;20491;-74